Time;durP1;ratioP1;P1;durP2;ratioP2;P2;SDS_P1;SDS_P2;PMS_P1;PMS_P2;Temp;Humidity;BMP_temperature;BMP_pressure;BME280_temperature;BME280_humidity;BME280_pressure;Samples;Min_cycle;Max_cycle;Signal;HPM_P1;HPM_P2
2022/03/23 00:00:05;;;;;;;;;;;;;;;;;;1043897;28;890;-41
2022/03/23 00:00:43;;;;;;;;;;;;;;;;;;1039034;28;687;-40
2022/03/23 00:01:14;;;;;;;;;;;;;;;;;;1039412;28;780;-40
2022/03/23 00:01:44;;;;;;;;;;;;;;;;;;1039139;28;864;-39
2022/03/23 00:02:14;;;;;;;;;;;;;;;;;;1040465;28;823;-40
2022/03/23 00:02:45;;;;;;;;;;;;;;;;;;1043795;28;934;-40
2022/03/23 00:03:15;;;;;;;;;;;;;;;;;;1043482;28;1367;-40
2022/03/23 00:03:46;;;;;;;;;;;;;;;;;;1043693;28;809;-39
2022/03/23 00:04:17;;;;;;;;;;;;;;;;;;1043745;28;965;-39
2022/03/23 00:04:47;;;;;;;;;;;;;;;;;;1043349;28;906;-40
2022/03/23 00:05:18;;;;;;;;;;;;;;;;;;1043682;28;887;-39
2022/03/23 00:05:48;;;;;;;;;;;;;;;;;;1043525;28;913;-39
2022/03/23 00:06:19;;;;;;;;;;;;;;;;;;1043740;28;787;-39
2022/03/23 00:06:49;;;;;;;;;;;;;;;;;;1043674;28;794;-39
2022/03/23 00:07:20;;;;;;;;;;;;;;;;;;1043719;28;1199;-40
2022/03/23 00:07:51;;;;;;;;;;;;;;;;;;1043512;28;866;-40
2022/03/23 00:08:21;;;;;;;;;;;;;;;;;;1043610;28;879;-39
2022/03/23 00:08:51;;;;;;;;;;;;;;;;;;1043674;28;878;-38
2022/03/23 00:09:21;;;;;;;;;;;;;;;;;;1043742;28;784;-38
2022/03/23 00:09:52;;;;;;;;;;;;;;;;;;1043479;28;929;-39
2022/03/23 00:10:23;;;;;;;;;;;;;;;;;;1043707;28;1340;-39
2022/03/23 00:10:53;;;;;;;;;;;;;;;;;;1043540;28;1089;-39
2022/03/23 00:11:24;;;;;;;;;;;;;;;;;;1043752;28;891;-38
2022/03/23 00:11:55;;;;;;;;;;;;;;;;;;1043627;28;843;-39
2022/03/23 00:12:25;;;;;;;;;;;;;;;;;;1043258;28;1963;-39
2022/03/23 00:12:57;;;;;;;;;;;;;;;;;;1043625;28;973;-39
2022/03/23 00:13:27;;;;;;;;;;;;;;;;;;1043036;28;1306;-39
2022/03/23 00:13:58;;;;;;;;;;;;;;;;;;1039112;28;810;-39
2022/03/23 00:14:28;;;;;;;;;;;;;;;;;;1039628;28;894;-38
2022/03/23 00:14:58;;;;;;;;;;;;;;;;;;1039306;28;945;-39
2022/03/23 00:15:29;;;;;;;;;;;;;;;;;;1039311;28;819;-37
2022/03/23 00:16:00;;;;;;;;;;;;;;;;;;1039153;28;969;-38
2022/03/23 00:16:30;;;;;;;;;;;;;;;;;;1039113;28;1017;-40
2022/03/23 00:17:01;;;;;;;;;;;;;;;;;;1039220;28;1617;-39
2022/03/23 00:17:31;;;;;;;;;;;;;;;;;;1039553;28;938;-39
2022/03/23 00:18:02;;;;;;;;;;;;;;;;;;1039356;28;914;-39
2022/03/23 00:18:32;;;;;;;;;;;;;;;;;;1039449;28;910;-41
2022/03/23 00:19:03;;;;;;;;;;;;;;;;;;1039359;28;961;-39
2022/03/23 00:19:34;;;;;;;;;;;;;;;;;;1039229;28;934;-40
2022/03/23 00:20:04;;;;;;;;;;;;;;;;;;1039608;28;862;-38
2022/03/23 00:20:35;;;;;;;;;;;;;;;;;;1039460;28;962;-39
2022/03/23 00:21:05;;;;;;;;;;;;;;;;;;1039588;28;895;-39
2022/03/23 00:21:36;;;;;;;;;;;;;;;;;;1039435;28;1025;-39
2022/03/23 00:22:06;;;;;;;;;;;;;;;;;;1039568;28;890;-39
2022/03/23 00:22:37;;;;;;;;;;;;;;;;;;1039458;28;799;-39
2022/03/23 00:23:10;;;;;;;;;;;;;;;;;;1039414;28;1052;-41
2022/03/23 00:23:41;;;;;;;;;;;;;;;;;;1039565;28;938;-39
2022/03/23 00:24:11;;;;;;;;;;;;;;;;;;1039482;28;961;-39
2022/03/23 00:24:41;;;;;;;;;;;;;;;;;;1040390;28;972;-41
2022/03/23 00:25:12;;;;;;;;;;;;;;;;;;1042145;28;1145;-39
2022/03/23 00:25:42;;;;;;;;;;;;;;;;;;1039434;28;965;-39
2022/03/23 00:26:13;;;;;;;;;;;;;;;;;;1039544;28;812;-39
2022/03/23 00:26:43;;;;;;;;;;;;;;;;;;1039491;28;895;-39
2022/03/23 00:27:13;;;;;;;;;;;;;;;;;;1039200;28;910;-38
2022/03/23 00:27:45;;;;;;;;;;;;;;;;;;1039504;28;847;-40
2022/03/23 00:28:15;;;;;;;;;;;;;;;;;;1039400;28;958;-36
2022/03/23 00:28:46;;;;;;;;;;;;;;;;;;1039570;28;1001;-39
2022/03/23 00:29:16;;;;;;;;;;;;;;;;;;1039427;28;800;-39
2022/03/23 00:29:47;;;;;;;;;;;;;;;;;;1039515;28;997;-39
2022/03/23 00:30:18;;;;;;;;;;;;;;;;;;1039505;28;827;-39
2022/03/23 00:30:51;;;;;;;;;;;;;;;;;;1039526;28;853;-39
2022/03/23 00:31:22;;;;;;;;;;;;;;;;;;1039474;28;914;-39
2022/03/23 00:31:52;;;;;;;;;;;;;;;;;;1039595;28;772;-39
2022/03/23 00:32:22;;;;;;;;;;;;;;;;;;1039397;28;1985;-39
2022/03/23 00:32:53;;;;;;;;;;;;;;;;;;1039603;28;1057;-39
2022/03/23 00:33:23;;;;;;;;;;;;;;;;;;1039320;28;938;-39
2022/03/23 00:33:54;;;;;;;;;;;;;;;;;;1039620;28;835;-38
2022/03/23 00:34:24;;;;;;;;;;;;;;;;;;1034747;28;997;-39
2022/03/23 00:34:54;;;;;;;;;;;;;;;;;;1034888;28;1260;-39
2022/03/23 00:35:25;;;;;;;;;;;;;;;;;;1035106;28;942;-39
2022/03/23 00:35:57;;;;;;;;;;;;;;;;;;1034953;28;862;-38
2022/03/23 00:36:28;;;;;;;;;;;;;;;;;;1035115;28;1880;-39
2022/03/23 00:36:58;;;;;;;;;;;;;;;;;;1035058;28;816;-39
2022/03/23 00:37:29;;;;;;;;;;;;;;;;;;1035026;28;777;-38
2022/03/23 00:38:00;;;;;;;;;;;;;;;;;;1034961;28;1327;-39
2022/03/23 00:38:31;;;;;;;;;;;;;;;;;;1039187;28;815;-38
2022/03/23 00:39:01;;;;;;;;;;;;;;;;;;1039080;28;779;-39
2022/03/23 00:39:32;;;;;;;;;;;;;;;;;;1035156;28;862;-38
2022/03/23 00:40:02;;;;;;;;;;;;;;;;;;1035505;28;776;-39
2022/03/23 00:40:33;;;;;;;;;;;;;;;;;;1039543;28;922;-38
2022/03/23 00:41:03;;;;;;;;;;;;;;;;;;1039565;28;890;-39
2022/03/23 00:41:35;;;;;;;;;;;;;;;;;;1035555;28;1391;-39
2022/03/23 00:42:05;;;;;;;;;;;;;;;;;;1035688;28;886;-38
2022/03/23 00:42:37;;;;;;;;;;;;;;;;;;1031753;28;1158;-37
2022/03/23 00:43:08;;;;;;;;;;;;;;;;;;1032212;28;866;-38
2022/03/23 00:43:39;;;;;;;;;;;;;;;;;;1035872;28;855;-40
2022/03/23 00:44:10;;;;;;;;;;;;;;;;;;1036140;28;902;-38
2022/03/23 00:44:40;;;;;;;;;;;;;;;;;;1040353;28;1355;-39
2022/03/23 00:45:14;;;;;;;;;;;;;;;;;;1040206;28;1011;-39
2022/03/23 00:45:45;;;;;;;;;;;;;;;;;;1040258;28;870;-39
2022/03/23 00:46:16;;;;;;;;;;;;;;;;;;1040192;28;973;-38
2022/03/23 00:46:46;;;;;;;;;;;;;;;;;;1040332;28;814;-38
2022/03/23 00:47:17;;;;;;;;;;;;;;;;;;1040365;28;906;-40
2022/03/23 00:47:48;;;;;;;;;;;;;;;;;;1040206;28;775;-39
2022/03/23 00:48:18;;;;;;;;;;;;;;;;;;1038999;28;1059;-39
2022/03/23 00:48:49;;;;;;;;;;;;;;;;;;1031794;28;958;-38
2022/03/23 00:49:19;;;;;;;;;;;;;;;;;;1031352;28;942;-39
2022/03/23 00:49:50;;;;;;;;;;;;;;;;;;1031781;28;1016;-39
2022/03/23 00:50:20;;;;;;;;;;;;;;;;;;1031853;28;969;-39
2022/03/23 00:50:51;;;;;;;;;;;;;;;;;;1036106;28;1724;-38
2022/03/23 00:51:21;;;;;;;;;;;;;;;;;;1036171;28;942;-39
2022/03/23 00:51:53;;;;;;;;;;;;;;;;;;1035757;28;937;-40
2022/03/23 00:52:23;;;;;;;;;;;;;;;;;;1031645;28;1980;-39
2022/03/23 00:52:53;;;;;;;;;;;;;;;;;;1027720;28;2515;-40
2022/03/23 00:53:24;;;;;;;;;;;;;;;;;;1023691;29;883;-39
2022/03/23 00:53:54;;;;;;;;;;;;;;;;;;1023730;28;840;-39
2022/03/23 00:54:25;;;;;;;;;;;;;;;;;;1027770;28;925;-40
2022/03/23 00:54:55;;;;;;;;;;;;;;;;;;1031595;28;942;-40
2022/03/23 00:55:26;;;;;;;;;;;;;;;;;;1032009;28;827;-40
2022/03/23 00:55:56;;;;;;;;;;;;;;;;;;1036112;28;815;-40
2022/03/23 00:56:27;;;;;;;;;;;;;;;;;;1036059;28;875;-39
2022/03/23 00:57:00;;;;;;;;;;;;;;;;;;1035918;28;909;-39
2022/03/23 00:57:30;;;;;;;;;;;;;;;;;;1036164;28;933;-39
2022/03/23 00:58:00;;;;;;;;;;;;;;;;;;1035933;28;838;-39
2022/03/23 00:58:31;;;;;;;;;;;;;;;;;;1036025;28;851;-40
2022/03/23 00:59:01;;;;;;;;;;;;;;;;;;1035764;28;906;-39
2022/03/23 00:59:33;;;;;;;;;;;;;;;;;;1035839;28;1240;-40
2022/03/23 01:00:06;;;;;;;;;;;;;;;;;;1035708;28;795;-39
2022/03/23 01:00:36;;;;;;;;;;;;;;;;;;1035654;28;1013;-38
2022/03/23 01:01:07;;;;;;;;;;;;;;;;;;1035909;28;803;-39
2022/03/23 01:01:38;;;;;;;;;;;;;;;;;;1036144;28;764;-38
2022/03/23 01:02:10;;;;;;;;;;;;;;;;;;1035762;28;1568;-40
2022/03/23 01:02:41;;;;;;;;;;;;;;;;;;1035645;28;862;-40
2022/03/23 01:03:12;;;;;;;;;;;;;;;;;;1035785;28;1244;-39
2022/03/23 01:03:42;;;;;;;;;;;;;;;;;;1035750;28;906;-39
2022/03/23 01:04:13;;;;;;;;;;;;;;;;;;1035766;28;801;-39
2022/03/23 01:04:43;;;;;;;;;;;;;;;;;;1036213;28;815;-40
2022/03/23 01:05:15;;;;;;;;;;;;;;;;;;1035502;28;982;-38
2022/03/23 01:05:45;;;;;;;;;;;;;;;;;;1035924;28;938;-39
2022/03/23 01:06:16;;;;;;;;;;;;;;;;;;1031596;28;1113;-38
2022/03/23 01:06:46;;;;;;;;;;;;;;;;;;1031623;28;1049;-40
2022/03/23 01:07:16;;;;;;;;;;;;;;;;;;1031698;28;1618;-40
2022/03/23 01:07:47;;;;;;;;;;;;;;;;;;1031680;28;796;-39
2022/03/23 01:08:17;;;;;;;;;;;;;;;;;;1031538;28;839;-40
2022/03/23 01:08:48;;;;;;;;;;;;;;;;;;1031783;28;902;-38
2022/03/23 01:09:23;;;;;;;;;;;;;;;;;;1031611;28;985;-38
2022/03/23 01:09:53;;;;;;;;;;;;;;;;;;1032458;28;898;-39
2022/03/23 01:10:24;;;;;;;;;;;;;;;;;;1036228;28;972;-39
2022/03/23 01:10:55;;;;;;;;;;;;;;;;;;1031434;28;934;-40
2022/03/23 01:11:25;;;;;;;;;;;;;;;;;;1031454;28;1119;-39
2022/03/23 01:11:56;;;;;;;;;;;;;;;;;;1031555;28;855;-39
2022/03/23 01:12:27;;;;;;;;;;;;;;;;;;1031852;28;1918;-40
2022/03/23 01:12:57;;;;;;;;;;;;;;;;;;1035651;28;946;-39
2022/03/23 01:13:28;;;;;;;;;;;;;;;;;;1036169;28;1037;-39
2022/03/23 01:13:58;;;;;;;;;;;;;;;;;;1036046;28;1012;-39
2022/03/23 01:14:29;;;;;;;;;;;;;;;;;;1036088;28;862;-39
2022/03/23 01:14:59;;;;;;;;;;;;;;;;;;1035993;28;989;-39
2022/03/23 01:15:30;;;;;;;;;;;;;;;;;;1035752;28;831;-39
2022/03/23 01:16:00;;;;;;;;;;;;;;;;;;1035606;28;914;-40
2022/03/23 01:16:30;;;;;;;;;;;;;;;;;;1031848;28;1130;-40
2022/03/23 01:17:03;;;;;;;;;;;;;;;;;;1031576;28;914;-39
2022/03/23 01:17:33;;;;;;;;;;;;;;;;;;1035797;28;874;-38
2022/03/23 01:18:04;;;;;;;;;;;;;;;;;;1035653;28;1020;-39
2022/03/23 01:18:35;;;;;;;;;;;;;;;;;;1035976;28;791;-39
2022/03/23 01:19:06;;;;;;;;;;;;;;;;;;1031368;28;1307;-39
2022/03/23 01:19:37;;;;;;;;;;;;;;;;;;1031594;28;1800;-40
2022/03/23 01:20:10;;;;;;;;;;;;;;;;;;1031569;28;878;-40
2022/03/23 01:20:41;;;;;;;;;;;;;;;;;;1032175;28;807;-40
2022/03/23 01:21:13;;;;;;;;;;;;;;;;;;1035753;28;949;-40
2022/03/23 01:21:46;;;;;;;;;;;;;;;;;;1036027;28;819;-40
2022/03/23 01:22:17;;;;;;;;;;;;;;;;;;1031473;28;1225;-38
2022/03/23 01:22:49;;;;;;;;;;;;;;;;;;1031752;28;954;-39
2022/03/23 01:23:20;;;;;;;;;;;;;;;;;;1031643;28;946;-40
2022/03/23 01:23:50;;;;;;;;;;;;;;;;;;1031899;28;811;-39
2022/03/23 01:24:21;;;;;;;;;;;;;;;;;;1036002;28;969;-39
2022/03/23 01:24:51;;;;;;;;;;;;;;;;;;1036084;28;1090;-38
2022/03/23 01:25:22;;;;;;;;;;;;;;;;;;1035496;28;1255;-40
2022/03/23 01:25:53;;;;;;;;;;;;;;;;;;1035751;28;907;-40
2022/03/23 01:26:23;;;;;;;;;;;;;;;;;;1035295;28;835;-41
2022/03/23 01:26:54;;;;;;;;;;;;;;;;;;1031683;28;799;-41
2022/03/23 01:27:24;;;;;;;;;;;;;;;;;;1031746;28;843;-40
2022/03/23 01:27:56;;;;;;;;;;;;;;;;;;1031441;28;949;-41
2022/03/23 01:28:27;;;;;;;;;;;;;;;;;;1031826;28;1111;-39
2022/03/23 01:28:57;;;;;;;;;;;;;;;;;;1035530;28;1180;-40
2022/03/23 01:29:27;;;;;;;;;;;;;;;;;;1035653;28;926;-40
2022/03/23 01:29:58;;;;;;;;;;;;;;;;;;1031612;28;1324;-40
2022/03/23 01:30:28;;;;;;;;;;;;;;;;;;1031558;28;989;-40
2022/03/23 01:30:59;;;;;;;;;;;;;;;;;;1031612;28;887;-40
2022/03/23 01:31:30;;;;;;;;;;;;;;;;;;1027618;28;883;-39
2022/03/23 01:32:01;;;;;;;;;;;;;;;;;;1027530;28;1970;-40
2022/03/23 01:32:33;;;;;;;;;;;;;;;;;;1023684;29;1194;-40
2022/03/23 01:33:04;;;;;;;;;;;;;;;;;;1024242;28;1026;-38
2022/03/23 01:33:34;;;;;;;;;;;;;;;;;;1031367;28;799;-40
2022/03/23 01:34:04;;;;;;;;;;;;;;;;;;1031563;28;958;-39
2022/03/23 01:34:35;;;;;;;;;;;;;;;;;;1035601;28;787;-40
2022/03/23 01:35:07;;;;;;;;;;;;;;;;;;1035740;28;854;-40
2022/03/23 01:35:37;;;;;;;;;;;;;;;;;;1035579;28;882;-40
2022/03/23 01:36:09;;;;;;;;;;;;;;;;;;1035905;28;1084;-39
2022/03/23 01:36:39;;;;;;;;;;;;;;;;;;1031568;28;926;-39
2022/03/23 01:37:10;;;;;;;;;;;;;;;;;;1027472;28;1329;-40
2022/03/23 01:37:42;;;;;;;;;;;;;;;;;;1027657;28;1484;-39
2022/03/23 01:38:12;;;;;;;;;;;;;;;;;;1027877;28;843;-42
2022/03/23 01:38:43;;;;;;;;;;;;;;;;;;1031529;28;816;-40
2022/03/23 01:39:14;;;;;;;;;;;;;;;;;;1031868;28;934;-40
2022/03/23 01:39:45;;;;;;;;;;;;;;;;;;1036056;28;819;-40
2022/03/23 01:40:16;;;;;;;;;;;;;;;;;;1031283;28;803;-40
2022/03/23 01:40:47;;;;;;;;;;;;;;;;;;1031841;28;847;-39
2022/03/23 01:41:20;;;;;;;;;;;;;;;;;;1031087;28;852;-39
2022/03/23 01:41:52;;;;;;;;;;;;;;;;;;1032368;28;1382;-40
2022/03/23 01:42:22;;;;;;;;;;;;;;;;;;1035447;28;945;-40
2022/03/23 01:42:52;;;;;;;;;;;;;;;;;;1035777;28;941;-39
2022/03/23 01:43:22;;;;;;;;;;;;;;;;;;1035569;28;966;-39
2022/03/23 01:43:53;;;;;;;;;;;;;;;;;;1036022;28;950;-40
2022/03/23 01:44:25;;;;;;;;;;;;;;;;;;1031493;28;1156;-40
2022/03/23 01:44:56;;;;;;;;;;;;;;;;;;1031572;28;947;-40
2022/03/23 01:45:28;;;;;;;;;;;;;;;;;;1031489;28;1499;-40
2022/03/23 01:45:58;;;;;;;;;;;;;;;;;;1031690;28;851;-39
2022/03/23 01:46:29;;;;;;;;;;;;;;;;;;1031687;28;905;-37
2022/03/23 01:47:00;;;;;;;;;;;;;;;;;;1031582;28;1161;-40
2022/03/23 01:47:33;;;;;;;;;;;;;;;;;;1027421;28;1575;-40
2022/03/23 01:48:04;;;;;;;;;;;;;;;;;;1027476;28;1204;-39
2022/03/23 01:48:34;;;;;;;;;;;;;;;;;;1030485;28;1147;-39
2022/03/23 01:49:04;;;;;;;;;;;;;;;;;;1035745;28;846;-40
2022/03/23 01:49:36;;;;;;;;;;;;;;;;;;1035525;28;1479;-38
2022/03/23 01:50:07;;;;;;;;;;;;;;;;;;1035752;28;926;-39
2022/03/23 01:50:37;;;;;;;;;;;;;;;;;;1031275;28;977;-38
2022/03/23 01:51:07;;;;;;;;;;;;;;;;;;1031777;28;1802;-39
2022/03/23 01:51:40;;;;;;;;;;;;;;;;;;1031413;28;1319;-39
2022/03/23 01:52:12;;;;;;;;;;;;;;;;;;1031852;28;1914;-38
2022/03/23 01:52:42;;;;;;;;;;;;;;;;;;1034997;28;958;-38
2022/03/23 01:53:13;;;;;;;;;;;;;;;;;;1035098;28;875;-39
2022/03/23 01:53:43;;;;;;;;;;;;;;;;;;1031569;28;1226;-39
2022/03/23 01:54:13;;;;;;;;;;;;;;;;;;1031518;28;819;-39
2022/03/23 01:54:44;;;;;;;;;;;;;;;;;;1031665;28;827;-39
2022/03/23 01:55:17;;;;;;;;;;;;;;;;;;1031499;28;827;-39
2022/03/23 01:55:47;;;;;;;;;;;;;;;;;;1031261;28;918;-39
2022/03/23 01:56:18;;;;;;;;;;;;;;;;;;1035536;28;933;-39
2022/03/23 01:56:49;;;;;;;;;;;;;;;;;;1035692;28;1393;-38
2022/03/23 01:57:21;;;;;;;;;;;;;;;;;;1035293;28;1208;-39
2022/03/23 01:57:53;;;;;;;;;;;;;;;;;;1035527;28;1176;-39
2022/03/23 01:58:25;;;;;;;;;;;;;;;;;;1035451;28;938;-39
2022/03/23 01:58:56;;;;;;;;;;;;;;;;;;1032188;28;1152;-39
2022/03/23 01:59:27;;;;;;;;;;;;;;;;;;1034654;28;1148;-40
2022/03/23 01:59:57;;;;;;;;;;;;;;;;;;1035499;28;2267;-39
2022/03/23 02:00:29;;;;;;;;;;;;;;;;;;1035522;28;905;-40
2022/03/23 02:01:00;;;;;;;;;;;;;;;;;;1031469;28;1181;-38
2022/03/23 02:01:30;;;;;;;;;;;;;;;;;;1027571;28;1169;-39
2022/03/23 02:02:03;;;;;;;;;;;;;;;;;;1027576;28;1020;-41
2022/03/23 02:02:36;;;;;;;;;;;;;;;;;;1028080;28;1313;-39
2022/03/23 02:03:10;;;;;;;;;;;;;;;;;;1027331;28;1265;-39
2022/03/23 02:03:41;;;;;;;;;;;;;;;;;;1028204;28;1236;-39
2022/03/23 02:04:13;;;;;;;;;;;;;;;;;;1027521;28;1145;-39
2022/03/23 02:04:43;;;;;;;;;;;;;;;;;;1028067;28;931;-38
2022/03/23 02:05:14;;;;;;;;;;;;;;;;;;1027723;28;1153;-39
2022/03/23 02:05:51;;;;;;;;;;;;;;;;;;1028268;28;1168;-39
2022/03/23 02:06:23;;;;;;;;;;;;;;;;;;1031510;28;1323;-40
2022/03/23 02:06:53;;;;;;;;;;;;;;;;;;1028457;28;1308;-40
2022/03/23 02:07:26;;;;;;;;;;;;;;;;;;1032065;28;1185;-40
2022/03/23 02:07:58;;;;;;;;;;;;;;;;;;1031333;28;1165;-38
2022/03/23 02:08:28;;;;;;;;;;;;;;;;;;1031959;28;879;-39
2022/03/23 02:08:59;;;;;;;;;;;;;;;;;;1035412;28;2138;-40
2022/03/23 02:09:30;;;;;;;;;;;;;;;;;;1035550;28;886;-39
2022/03/23 02:10:04;;;;;;;;;;;;;;;;;;1031989;28;1354;-40
2022/03/23 02:10:55;;;;;;;;;;;;;;;;;;1034464;28;1027;-39
2022/03/23 02:11:42;;;;;;;;;;;;;;;;;;1031376;28;1301;-39
2022/03/23 02:12:12;;;;;;;;;;;;;;;;;;1032788;28;1979;-39
2022/03/23 02:12:43;;;;;;;;;;;;;;;;;;1035650;28;799;-39
2022/03/23 02:13:14;;;;;;;;;;;;;;;;;;1035537;28;899;-39
2022/03/23 02:13:44;;;;;;;;;;;;;;;;;;1035524;28;1405;-39
2022/03/23 02:14:15;;;;;;;;;;;;;;;;;;1035462;28;795;-39
2022/03/23 02:14:48;;;;;;;;;;;;;;;;;;1035423;28;1296;-39
2022/03/23 02:15:18;;;;;;;;;;;;;;;;;;1031978;28;926;-39
2022/03/23 02:15:49;;;;;;;;;;;;;;;;;;1035370;28;819;-38
2022/03/23 02:16:20;;;;;;;;;;;;;;;;;;1035617;28;883;-39
2022/03/23 02:16:51;;;;;;;;;;;;;;;;;;1031448;28;1149;-39
2022/03/23 02:17:21;;;;;;;;;;;;;;;;;;1031345;28;1352;-39
2022/03/23 02:17:53;;;;;;;;;;;;;;;;;;1035262;28;804;-40
2022/03/23 02:18:24;;;;;;;;;;;;;;;;;;1034829;28;1192;-38
2022/03/23 02:18:57;;;;;;;;;;;;;;;;;;1031426;28;832;-39
2022/03/23 02:19:28;;;;;;;;;;;;;;;;;;1032146;28;1142;-40
2022/03/23 02:19:58;;;;;;;;;;;;;;;;;;1031685;28;1305;-39
2022/03/23 02:20:30;;;;;;;;;;;;;;;;;;1035255;28;1215;-39
2022/03/23 02:21:01;;;;;;;;;;;;;;;;;;1031330;28;1356;-38
2022/03/23 02:21:34;;;;;;;;;;;;;;;;;;1031389;28;1365;-39
2022/03/23 02:22:04;;;;;;;;;;;;;;;;;;1031415;28;1153;-39
2022/03/23 02:22:35;;;;;;;;;;;;;;;;;;1031607;28;1210;-39
2022/03/23 02:23:05;;;;;;;;;;;;;;;;;;1035527;28;922;-37
2022/03/23 02:23:36;;;;;;;;;;;;;;;;;;1035473;28;953;-39
2022/03/23 02:24:06;;;;;;;;;;;;;;;;;;1035501;28;818;-39
2022/03/23 02:24:37;;;;;;;;;;;;;;;;;;1035908;28;835;-39
2022/03/23 02:25:08;;;;;;;;;;;;;;;;;;1037180;28;1223;-39
2022/03/23 02:25:39;;;;;;;;;;;;;;;;;;1042868;28;1109;-40
2022/03/23 02:26:11;;;;;;;;;;;;;;;;;;1039836;28;846;-39
2022/03/23 02:26:42;;;;;;;;;;;;;;;;;;1039928;28;843;-39
2022/03/23 02:27:12;;;;;;;;;;;;;;;;;;1039802;28;918;-40
2022/03/23 02:27:42;;;;;;;;;;;;;;;;;;1039752;28;961;-40
2022/03/23 02:28:14;;;;;;;;;;;;;;;;;;1039872;28;854;-39
2022/03/23 02:28:45;;;;;;;;;;;;;;;;;;1039900;28;929;-39
2022/03/23 02:29:15;;;;;;;;;;;;;;;;;;1039803;28;795;-39
2022/03/23 02:29:46;;;;;;;;;;;;;;;;;;1040010;28;859;-40
2022/03/23 02:30:16;;;;;;;;;;;;;;;;;;1039896;28;775;-39
2022/03/23 02:30:47;;;;;;;;;;;;;;;;;;1039849;28;1043;-39
2022/03/23 02:31:17;;;;;;;;;;;;;;;;;;1039925;28;878;-39
2022/03/23 02:31:47;;;;;;;;;;;;;;;;;;1039840;28;831;-40
2022/03/23 02:32:18;;;;;;;;;;;;;;;;;;1039908;28;1918;-40
2022/03/23 02:32:49;;;;;;;;;;;;;;;;;;1039476;28;954;-40
2022/03/23 02:33:20;;;;;;;;;;;;;;;;;;1039959;28;894;-39
2022/03/23 02:33:50;;;;;;;;;;;;;;;;;;1039922;28;847;-40
2022/03/23 02:34:20;;;;;;;;;;;;;;;;;;1039756;28;1025;-39
2022/03/23 02:34:51;;;;;;;;;;;;;;;;;;1039859;28;779;-40
2022/03/23 02:35:21;;;;;;;;;;;;;;;;;;1039845;28;981;-40
2022/03/23 02:35:52;;;;;;;;;;;;;;;;;;1039848;28;800;-39
2022/03/23 02:36:22;;;;;;;;;;;;;;;;;;1035524;28;1017;-38
2022/03/23 02:36:53;;;;;;;;;;;;;;;;;;1035368;28;822;-39
2022/03/23 02:37:23;;;;;;;;;;;;;;;;;;1035454;28;899;-39
2022/03/23 02:37:53;;;;;;;;;;;;;;;;;;1035376;28;937;-38
2022/03/23 02:38:24;;;;;;;;;;;;;;;;;;1039762;28;953;-39
2022/03/23 02:38:55;;;;;;;;;;;;;;;;;;1039839;28;851;-39
2022/03/23 02:39:28;;;;;;;;;;;;;;;;;;1039799;28;893;-39
2022/03/23 02:39:58;;;;;;;;;;;;;;;;;;1039931;28;914;-39
2022/03/23 02:40:30;;;;;;;;;;;;;;;;;;1039610;28;854;-39
2022/03/23 02:41:00;;;;;;;;;;;;;;;;;;1039778;28;791;-39
2022/03/23 02:41:31;;;;;;;;;;;;;;;;;;1039319;28;1218;-39
2022/03/23 02:42:01;;;;;;;;;;;;;;;;;;1039574;28;969;-39
2022/03/23 02:42:31;;;;;;;;;;;;;;;;;;1039444;28;898;-39
2022/03/23 02:43:01;;;;;;;;;;;;;;;;;;1039607;28;818;-38
2022/03/23 02:43:32;;;;;;;;;;;;;;;;;;1039635;28;878;-39
2022/03/23 02:44:03;;;;;;;;;;;;;;;;;;1039987;28;767;-39
2022/03/23 02:44:34;;;;;;;;;;;;;;;;;;1039769;28;973;-39
2022/03/23 02:45:05;;;;;;;;;;;;;;;;;;1039834;28;896;-39
2022/03/23 02:45:36;;;;;;;;;;;;;;;;;;1039888;28;861;-40
2022/03/23 02:46:13;;;;;;;;;;;;;;;;;;1039655;28;799;-40
2022/03/23 02:46:43;;;;;;;;;;;;;;;;;;1039877;28;1013;-41
2022/03/23 02:47:14;;;;;;;;;;;;;;;;;;1039781;28;870;-39
2022/03/23 02:47:44;;;;;;;;;;;;;;;;;;1039299;28;894;-39
2022/03/23 02:48:15;;;;;;;;;;;;;;;;;;1039663;28;1206;-40
2022/03/23 02:48:47;;;;;;;;;;;;;;;;;;1039738;28;838;-40
2022/03/23 02:49:18;;;;;;;;;;;;;;;;;;1039934;28;855;-40
2022/03/23 02:49:48;;;;;;;;;;;;;;;;;;1039782;28;874;-38
2022/03/23 02:50:18;;;;;;;;;;;;;;;;;;1039873;28;954;-40
2022/03/23 02:50:49;;;;;;;;;;;;;;;;;;1039823;28;905;-39
2022/03/23 02:51:19;;;;;;;;;;;;;;;;;;1039808;28;871;-40
2022/03/23 02:51:50;;;;;;;;;;;;;;;;;;1039654;28;925;-39
2022/03/23 02:52:20;;;;;;;;;;;;;;;;;;1039910;28;1952;-40
2022/03/23 03:01:56;;;;;;;;;;;;;;;;;;1031264;28;1398;-39
2022/03/23 03:02:35;;;;;;;;;;;;;;;;;;1028082;28;1622;-39
2022/03/23 03:03:05;;;;;;;;;;;;;;;;;;1035264;28;1279;-40
2022/03/23 03:03:36;;;;;;;;;;;;;;;;;;1039417;28;838;-40
2022/03/23 03:04:07;;;;;;;;;;;;;;;;;;1038970;28;818;-40
2022/03/23 03:04:38;;;;;;;;;;;;;;;;;;1039553;28;894;-39
2022/03/23 03:05:09;;;;;;;;;;;;;;;;;;1039348;28;861;-37
2022/03/23 03:05:40;;;;;;;;;;;;;;;;;;1039728;28;1103;-39
2022/03/23 03:06:10;;;;;;;;;;;;;;;;;;1039733;28;965;-39
2022/03/23 03:06:41;;;;;;;;;;;;;;;;;;1039657;28;881;-40
2022/03/23 03:07:11;;;;;;;;;;;;;;;;;;1039670;28;827;-39
2022/03/23 03:08:47;;;;;;;;;;;;;;;;;;1039673;28;906;-39
2022/03/23 03:09:19;;;;;;;;;;;;;;;;;;1039714;28;827;-38
2022/03/23 03:09:50;;;;;;;;;;;;;;;;;;1039337;28;847;-38
2022/03/23 03:10:20;;;;;;;;;;;;;;;;;;1039815;28;910;-39
2022/03/23 03:10:51;;;;;;;;;;;;;;;;;;1039565;28;890;-39
2022/03/23 03:11:22;;;;;;;;;;;;;;;;;;1039909;28;969;-39
2022/03/23 03:11:53;;;;;;;;;;;;;;;;;;1039604;28;945;-40
2022/03/23 03:12:23;;;;;;;;;;;;;;;;;;1039796;28;1923;-39
2022/03/23 03:12:54;;;;;;;;;;;;;;;;;;1039605;28;772;-39
2022/03/23 03:13:24;;;;;;;;;;;;;;;;;;1039720;28;905;-39
2022/03/23 03:13:54;;;;;;;;;;;;;;;;;;1039613;28;842;-37
2022/03/23 03:14:25;;;;;;;;;;;;;;;;;;1039805;28;942;-39
2022/03/23 03:14:55;;;;;;;;;;;;;;;;;;1039653;28;1032;-39
2022/03/23 03:15:26;;;;;;;;;;;;;;;;;;1039732;28;890;-40
2022/03/23 03:16:01;;;;;;;;;;;;;;;;;;1039521;28;906;-40
2022/03/23 03:16:31;;;;;;;;;;;;;;;;;;1039735;28;859;-39
2022/03/23 03:17:01;;;;;;;;;;;;;;;;;;1039598;28;978;-39
2022/03/23 03:17:32;;;;;;;;;;;;;;;;;;1039447;28;798;-39
2022/03/23 03:18:02;;;;;;;;;;;;;;;;;;1039671;28;934;-39
2022/03/23 03:18:33;;;;;;;;;;;;;;;;;;1039563;28;934;-39
2022/03/23 03:19:05;;;;;;;;;;;;;;;;;;1039649;28;815;-39
2022/03/23 03:19:35;;;;;;;;;;;;;;;;;;1039717;28;988;-39
2022/03/23 03:20:06;;;;;;;;;;;;;;;;;;1039589;28;838;-39
2022/03/23 03:20:37;;;;;;;;;;;;;;;;;;1039861;28;996;-39
2022/03/23 03:21:08;;;;;;;;;;;;;;;;;;1039409;28;961;-39
2022/03/23 03:21:38;;;;;;;;;;;;;;;;;;1039890;28;929;-38
2022/03/23 03:22:09;;;;;;;;;;;;;;;;;;1039558;28;909;-39
2022/03/23 03:22:40;;;;;;;;;;;;;;;;;;1039681;28;803;-40
2022/03/23 03:23:10;;;;;;;;;;;;;;;;;;1039560;28;910;-40
2022/03/23 03:23:42;;;;;;;;;;;;;;;;;;1039756;28;905;-39
2022/03/23 03:24:12;;;;;;;;;;;;;;;;;;1039580;28;968;-38
2022/03/23 03:24:42;;;;;;;;;;;;;;;;;;1039177;28;851;-39
2022/03/23 03:25:16;;;;;;;;;;;;;;;;;;1040485;28;1212;-39
2022/03/23 03:25:46;;;;;;;;;;;;;;;;;;1044807;28;1069;-40
2022/03/23 03:26:17;;;;;;;;;;;;;;;;;;1046951;28;1016;-38
2022/03/23 03:26:47;;;;;;;;;;;;;;;;;;1043778;28;1027;-41
2022/03/23 03:27:18;;;;;;;;;;;;;;;;;;1043709;28;1719;-39
2022/03/23 03:27:48;;;;;;;;;;;;;;;;;;1043619;28;878;-40
2022/03/23 03:28:19;;;;;;;;;;;;;;;;;;1043735;28;874;-37
2022/03/23 03:28:50;;;;;;;;;;;;;;;;;;1043864;28;992;-39
2022/03/23 03:29:20;;;;;;;;;;;;;;;;;;1043749;28;905;-40
2022/03/23 03:29:51;;;;;;;;;;;;;;;;;;1043746;28;1012;-40
2022/03/23 03:30:21;;;;;;;;;;;;;;;;;;1043733;28;835;-39
2022/03/23 03:30:52;;;;;;;;;;;;;;;;;;1043813;28;803;-39
2022/03/23 03:31:22;;;;;;;;;;;;;;;;;;1043773;28;921;-39
2022/03/23 03:31:54;;;;;;;;;;;;;;;;;;1043563;28;997;-40
2022/03/23 03:32:24;;;;;;;;;;;;;;;;;;1043559;28;1914;-38
2022/03/23 03:32:55;;;;;;;;;;;;;;;;;;1043795;28;886;-40
2022/03/23 03:33:25;;;;;;;;;;;;;;;;;;1043741;28;938;-39
2022/03/23 03:33:55;;;;;;;;;;;;;;;;;;1043970;28;827;-39
2022/03/23 03:34:26;;;;;;;;;;;;;;;;;;1043509;28;926;-41
2022/03/23 03:34:57;;;;;;;;;;;;;;;;;;1043872;28;803;-39
2022/03/23 03:35:27;;;;;;;;;;;;;;;;;;1043611;28;941;-40
2022/03/23 03:35:57;;;;;;;;;;;;;;;;;;1043808;28;800;-39
2022/03/23 03:36:28;;;;;;;;;;;;;;;;;;1043680;28;874;-40
2022/03/23 03:36:58;;;;;;;;;;;;;;;;;;1043840;28;957;-39
2022/03/23 03:37:28;;;;;;;;;;;;;;;;;;1043683;28;953;-39
2022/03/23 03:37:59;;;;;;;;;;;;;;;;;;1043739;28;854;-40
2022/03/23 03:38:30;;;;;;;;;;;;;;;;;;1043540;28;973;-40
2022/03/23 03:39:00;;;;;;;;;;;;;;;;;;1039438;28;1262;-39
2022/03/23 03:39:31;;;;;;;;;;;;;;;;;;1038782;28;933;-39
2022/03/23 03:40:03;;;;;;;;;;;;;;;;;;1039387;28;890;-40
2022/03/23 03:40:33;;;;;;;;;;;;;;;;;;1039594;28;1630;-40
2022/03/23 03:41:04;;;;;;;;;;;;;;;;;;1043692;28;862;-40
2022/03/23 03:41:35;;;;;;;;;;;;;;;;;;1043862;28;858;-41
2022/03/23 03:42:06;;;;;;;;;;;;;;;;;;1043651;28;914;-40
2022/03/23 03:42:37;;;;;;;;;;;;;;;;;;1043863;28;866;-40
2022/03/23 03:43:07;;;;;;;;;;;;;;;;;;1043648;28;954;-40
2022/03/23 03:43:38;;;;;;;;;;;;;;;;;;1043608;28;906;-39
2022/03/23 03:44:11;;;;;;;;;;;;;;;;;;1043603;28;926;-39
2022/03/23 03:44:41;;;;;;;;;;;;;;;;;;1043821;28;879;-40
2022/03/23 03:45:12;;;;;;;;;;;;;;;;;;1043583;28;886;-39
2022/03/23 03:45:45;;;;;;;;;;;;;;;;;;1043928;28;799;-39
2022/03/23 03:46:15;;;;;;;;;;;;;;;;;;1043516;28;953;-40
2022/03/23 03:46:46;;;;;;;;;;;;;;;;;;1043518;28;854;-40
2022/03/23 03:47:16;;;;;;;;;;;;;;;;;;1043736;28;859;-39
2022/03/23 03:47:47;;;;;;;;;;;;;;;;;;1043596;28;929;-40